Time;durP1;ratioP1;P1;durP2;ratioP2;P2;SDS_P1;SDS_P2;PMS_P1;PMS_P2;Temp;Humidity;BMP_temperature;BMP_pressure;BME280_temperature;BME280_humidity;BME280_pressure;Samples;Min_cycle;Max_cycle;Signal;HPM_P1;HPM_P2
2022/05/04 00:01:27;;;;;;;;;;;8.80;99.90;;;;;;5077604;28;19912;-72
2022/05/04 00:03:53;;;;;;;;;;;8.70;99.90;;;;;;5071136;28;19994;-71
2022/05/04 00:06:18;;;;;;;;;;;8.60;99.90;;;;;;5065423;28;20306;-72
2022/05/04 00:08:44;;;;;;;;;;;8.50;99.90;;;;;;5078659;28;19947;-72
2022/05/04 00:11:10;;;;;;;;;;;8.50;99.90;;;;;;5070003;28;19909;-72
2022/05/04 00:13:35;;;;;;;;;;;8.40;99.90;;;;;;5060632;28;19947;-71
2022/05/04 00:16:01;;;;;;;;;;;8.30;99.90;;;;;;5058764;28;20296;-72
2022/05/04 00:18:30;;;;;;;;;;;8.30;99.90;;;;;;5058846;28;20216;-72
2022/05/04 00:20:56;;;;;;;;;;;8.30;99.90;;;;;;5058540;28;19916;-72
2022/05/04 00:23:22;;;;;;;;;;;8.30;99.90;;;;;;5059603;28;19908;-71
2022/05/04 00:25:47;;;;;;;;;;;8.30;99.90;;;;;;5068628;28;19916;-72
2022/05/04 00:28:13;;;;;;;;;;;8.30;99.90;;;;;;5066316;28;20004;-72
2022/05/04 00:30:38;;;;;;;;;;;8.30;99.90;;;;;;5076026;28;19947;-71
2022/05/04 00:33:04;;;;;;;;;;;8.50;99.90;;;;;;5076296;28;19919;-72
2022/05/04 00:35:30;;;;;;;;;;;8.50;99.90;;;;;;5063272;28;19920;-71
2022/05/04 00:37:55;;;;;;;;;;;8.50;99.90;;;;;;5058368;28;19913;-71
2022/05/04 00:40:21;;;;;;;;;;;8.50;99.90;;;;;;5058162;28;19909;-72
2022/05/04 00:42:46;;;;;;;;;;;8.50;99.90;;;;;;5058548;28;19909;-72
2022/05/04 00:45:12;;;;;;;;;;;8.40;99.90;;;;;;5059092;28;20181;-72
2022/05/04 00:47:37;;;;;;;;;;;8.30;99.90;;;;;;5068534;28;20017;-72
2022/05/04 00:50:07;;;;;;;;;;;8.20;99.90;;;;;;5078186;28;20337;-72
2022/05/04 00:52:34;;;;;;;;;;;8.20;99.90;;;;;;5078070;28;19916;-72
2022/05/04 00:55:00;;;;;;;;;;;8.10;99.90;;;;;;5077009;28;20319;-72
2022/05/04 01:00:11;;;;;;;;;;;8.10;99.90;;;;;;5078442;28;19949;-72
2022/05/04 01:02:40;;;;;;;;;;;8.10;99.90;;;;;;5074086;28;20004;-71
2022/05/04 01:05:09;;;;;;;;;;;8.10;99.90;;;;;;5056794;28;19909;-71
2022/05/04 01:07:38;;;;;;;;;;;8.20;99.90;;;;;;5066013;28;19970;-71
2022/05/04 01:10:04;;;;;;;;;;;8.20;99.90;;;;;;5076552;28;19916;-71
2022/05/04 01:12:31;;;;;;;;;;;8.30;99.90;;;;;;5077620;28;19927;-71
2022/05/04 01:14:57;;;;;;;;;;;8.30;99.90;;;;;;5077366;28;19943;-71
2022/05/04 01:17:23;;;;;;;;;;;8.30;99.90;;;;;;5075231;28;19924;-73
2022/05/04 01:19:49;;;;;;;;;;;8.20;99.90;;;;;;5062058;28;19909;-72
2022/05/04 01:22:14;;;;;;;;;;;8.10;99.90;;;;;;5057687;28;19915;-72
2022/05/04 01:24:40;;;;;;;;;;;8.10;99.90;;;;;;5065131;28;19913;-72
2022/05/04 01:27:12;;;;;;;;;;;8.10;99.90;;;;;;5065491;28;19917;-70
2022/05/04 01:29:38;;;;;;;;;;;8.10;99.90;;;;;;5065983;28;19913;-71
2022/05/04 01:32:03;;;;;;;;;;;8.00;99.90;;;;;;5057695;28;19927;-72
2022/05/04 01:34:29;;;;;;;;;;;7.90;99.90;;;;;;5056035;28;19913;-72
2022/05/04 01:36:55;;;;;;;;;;;7.80;99.90;;;;;;5086704;28;20353;-72
2022/05/04 01:39:20;;;;;;;;;;;7.90;99.90;;;;;;5077846;28;19978;-72
2022/05/04 01:42:05;;;;;;;;;;;7.90;99.90;;;;;;5056107;28;20061;-72
2022/05/04 01:44:32;;;;;;;;;;;7.80;99.90;;;;;;5057269;28;19915;-71
2022/05/04 01:46:57;;;;;;;;;;;7.80;99.90;;;;;;5059847;28;19965;-71
2022/05/04 01:49:23;;;;;;;;;;;7.70;99.90;;;;;;5076992;28;19991;-72
2022/05/04 01:51:49;;;;;;;;;;;7.80;99.90;;;;;;5076800;28;19959;-72
2022/05/04 01:54:14;;;;;;;;;;;7.80;99.90;;;;;;5072222;28;19919;-72
2022/05/04 01:56:40;;;;;;;;;;;7.90;99.90;;;;;;5057187;28;19917;-72
2022/05/04 01:59:05;;;;;;;;;;;7.80;99.90;;;;;;5055669;28;19915;-71
2022/05/04 02:01:31;;;;;;;;;;;7.90;99.90;;;;;;5066839;28;19995;-71
2022/05/04 02:03:58;;;;;;;;;;;7.90;99.90;;;;;;5067387;28;20005;-71
2022/05/04 02:06:24;;;;;;;;;;;7.80;99.90;;;;;;5073690;28;19917;-71
2022/05/04 02:08:50;;;;;;;;;;;7.70;99.90;;;;;;5073709;28;19923;-71
2022/05/04 02:11:17;;;;;;;;;;;7.60;99.90;;;;;;5074400;28;20345;-71
2022/05/04 02:13:43;;;;;;;;;;;7.40;99.90;;;;;;5074571;28;20214;-71
2022/05/04 02:16:09;;;;;;;;;;;7.40;99.90;;;;;;5074576;28;19916;-71
2022/05/04 02:18:35;;;;;;;;;;;7.30;99.90;;;;;;5073520;28;20011;-71
2022/05/04 02:21:00;;;;;;;;;;;7.30;99.90;;;;;;5074441;28;19955;-71
2022/05/04 02:23:26;;;;;;;;;;;7.30;99.90;;;;;;5074446;28;19955;-71
2022/05/04 02:25:52;;;;;;;;;;;7.30;99.90;;;;;;5072725;28;20251;-71
2022/05/04 02:28:18;;;;;;;;;;;7.30;99.90;;;;;;5072616;28;19916;-71
2022/05/04 02:30:44;;;;;;;;;;;7.20;99.90;;;;;;5073665;28;19921;-71
2022/05/04 02:33:10;;;;;;;;;;;7.20;99.90;;;;;;5074387;28;19913;-71
2022/05/04 02:38:21;;;;;;;;;;;7.20;99.90;;;;;;5071546;28;19966;-71
2022/05/04 02:40:48;;;;;;;;;;;7.20;99.90;;;;;;5070211;28;19958;-71
2022/05/04 02:43:13;;;;;;;;;;;7.20;99.90;;;;;;5073962;28;19916;-72
2022/05/04 02:45:39;;;;;;;;;;;7.20;99.90;;;;;;5073516;28;19923;-71
2022/05/04 02:48:06;;;;;;;;;;;7.10;99.90;;;;;;5074224;28;20262;-72
2022/05/04 02:50:31;;;;;;;;;;;7.10;99.90;;;;;;5074515;28;20255;-71
2022/05/04 02:52:57;;;;;;;;;;;7.00;99.90;;;;;;5074012;28;20012;-71
2022/05/04 02:55:23;;;;;;;;;;;6.90;99.90;;;;;;5073121;28;19921;-71
2022/05/04 02:57:49;;;;;;;;;;;6.70;99.90;;;;;;5073047;28;19920;-71
2022/05/04 03:00:15;;;;;;;;;;;6.70;99.90;;;;;;5073340;28;19916;-71
2022/05/04 03:02:40;;;;;;;;;;;6.40;99.90;;;;;;5064127;28;20272;-72
2022/05/04 03:05:07;;;;;;;;;;;6.40;99.90;;;;;;5075790;28;20003;-72
2022/05/04 03:07:33;;;;;;;;;;;6.30;99.90;;;;;;5075293;28;19912;-71
2022/05/04 03:09:59;;;;;;;;;;;6.30;99.90;;;;;;5071096;28;20258;-72
2022/05/04 03:12:25;;;;;;;;;;;6.40;99.90;;;;;;5056735;28;19920;-71
2022/05/04 03:14:51;;;;;;;;;;;6.30;99.90;;;;;;5067824;28;19919;-71
2022/05/04 03:17:18;;;;;;;;;;;6.30;99.90;;;;;;5074101;28;20042;-71
2022/05/04 03:19:44;;;;;;;;;;;6.20;99.90;;;;;;5072122;28;19919;-72
2022/05/04 03:22:10;;;;;;;;;;;6.00;99.90;;;;;;5058355;28;20003;-72
2022/05/04 03:24:36;;;;;;;;;;;6.00;99.90;;;;;;5055470;28;19995;-71
2022/05/04 03:27:01;;;;;;;;;;;5.90;99.90;;;;;;5058003;28;19916;-72
2022/05/04 03:29:27;;;;;;;;;;;5.80;99.90;;;;;;5061315;28;20008;-72
2022/05/04 03:31:53;;;;;;;;;;;5.70;99.90;;;;;;5055608;28;19955;-72
2022/05/04 03:34:18;;;;;;;;;;;5.70;99.90;;;;;;5055463;28;20215;-72
2022/05/04 03:36:45;;;;;;;;;;;5.80;99.90;;;;;;5055495;28;20316;-72
2022/05/04 03:39:10;;;;;;;;;;;5.80;99.90;;;;;;5067518;28;20211;-71
2022/05/04 03:41:36;;;;;;;;;;;5.80;99.90;;;;;;5064137;28;19992;-72
2022/05/04 03:44:02;;;;;;;;;;;5.80;99.90;;;;;;5055389;28;19915;-72
2022/05/04 03:46:28;;;;;;;;;;;5.70;99.90;;;;;;5058010;28;19912;-72
2022/05/04 03:48:55;;;;;;;;;;;5.70;99.90;;;;;;5072096;28;19924;-72
2022/05/04 03:51:21;;;;;;;;;;;5.60;99.90;;;;;;5054318;28;19909;-72
2022/05/04 03:53:47;;;;;;;;;;;5.50;99.90;;;;;;5053965;28;19909;-72
2022/05/04 03:56:13;;;;;;;;;;;5.60;99.90;;;;;;5066344;28;20338;-72
2022/05/04 03:58:39;;;;;;;;;;;5.60;99.90;;;;;;5074650;28;20010;-72
2022/05/04 04:01:05;;;;;;;;;;;5.50;99.90;;;;;;5072835;28;19913;-72
2022/05/04 04:03:30;;;;;;;;;;;5.40;99.90;;;;;;5064445;28;20295;-72
2022/05/04 04:05:56;;;;;;;;;;;5.40;99.90;;;;;;5059401;28;19919;-72
2022/05/04 04:08:22;;;;;;;;;;;5.40;99.90;;;;;;5074901;28;19924;-72
2022/05/04 04:10:48;;;;;;;;;;;5.30;99.90;;;;;;5077021;28;19969;-72
2022/05/04 04:13:15;;;;;;;;;;;5.30;99.90;;;;;;5078385;28;20243;-72
2022/05/04 04:15:42;;;;;;;;;;;5.30;99.90;;;;;;5065046;28;20325;-72
2022/05/04 04:18:08;;;;;;;;;;;5.30;99.90;;;;;;5066205;28;19943;-72
2022/05/04 04:23:18;;;;;;;;;;;5.30;99.90;;;;;;5069515;28;19943;-71
2022/05/04 04:25:44;;;;;;;;;;;5.40;99.90;;;;;;5068755;28;20506;-71
2022/05/04 04:28:10;;;;;;;;;;;5.40;99.90;;;;;;5071874;28;19947;-71
2022/05/04 04:30:39;;;;;;;;;;;5.50;99.90;;;;;;5071010;28;19963;-71
2022/05/04 04:33:05;;;;;;;;;;;5.50;99.90;;;;;;5077982;28;19966;-71
2022/05/04 04:35:31;;;;;;;;;;;5.60;99.90;;;;;;5072621;28;19950;-72
2022/05/04 04:37:57;;;;;;;;;;;5.60;99.90;;;;;;5071589;28;19920;-72
2022/05/04 04:40:22;;;;;;;;;;;5.70;99.90;;;;;;5070987;28;19916;-71
2022/05/04 04:42:48;;;;;;;;;;;5.70;99.90;;;;;;5070775;28;19976;-71
2022/05/04 04:45:14;;;;;;;;;;;5.80;99.90;;;;;;5075740;28;19916;-71
2022/05/04 04:47:39;;;;;;;;;;;5.90;99.90;;;;;;5072894;28;20327;-71
2022/05/04 04:50:05;;;;;;;;;;;5.90;99.90;;;;;;5076482;28;20283;-71
2022/05/04 04:52:31;;;;;;;;;;;5.90;99.90;;;;;;5075488;28;19916;-71
2022/05/04 04:54:57;;;;;;;;;;;5.90;99.90;;;;;;5075394;28;19987;-71
2022/05/04 04:57:23;;;;;;;;;;;6.00;99.90;;;;;;5076765;28;19912;-71
2022/05/04 04:59:49;;;;;;;;;;;6.00;99.90;;;;;;5075914;28;19920;-71
2022/05/04 05:02:15;;;;;;;;;;;6.00;99.90;;;;;;5056567;28;19916;-71
2022/05/04 05:04:41;;;;;;;;;;;6.00;99.90;;;;;;5074900;28;19912;-71
2022/05/04 05:07:07;;;;;;;;;;;5.90;99.90;;;;;;5024520;28;19920;-71
2022/05/04 05:09:32;;;;;;;;;;;5.90;99.90;;;;;;5068585;28;19969;-71
2022/05/04 05:11:58;;;;;;;;;;;5.90;99.90;;;;;;5074477;28;19912;-71
2022/05/04 05:17:07;;;;;;;;;;;6.10;99.90;;;;;;5076096;28;19963;-71
2022/05/04 05:19:33;;;;;;;;;;;6.20;99.90;;;;;;5074000;28;19917;-71
2022/05/04 05:21:59;;;;;;;;;;;6.30;99.90;;;;;;5072454;28;19916;-71
2022/05/04 05:24:25;;;;;;;;;;;6.30;99.90;;;;;;5075373;28;19916;-71
2022/05/04 05:26:50;;;;;;;;;;;6.30;99.90;;;;;;5074414;28;20281;-71
2022/05/04 05:29:16;;;;;;;;;;;6.30;99.90;;;;;;5074822;28;19999;-71
2022/05/04 05:31:41;;;;;;;;;;;6.20;99.90;;;;;;5075440;28;19954;-71
2022/05/04 05:34:07;;;;;;;;;;;6.20;99.90;;;;;;5074998;28;20311;-71
2022/05/04 05:36:33;;;;;;;;;;;6.30;99.90;;;;;;5073234;28;19970;-71
2022/05/04 05:38:58;;;;;;;;;;;6.40;99.90;;;;;;5075287;28;19916;-71
2022/05/04 05:41:24;;;;;;;;;;;6.50;99.90;;;;;;5075327;28;20011;-71
2022/05/04 05:43:50;;;;;;;;;;;6.50;99.90;;;;;;5071963;28;20008;-71
2022/05/04 05:46:16;;;;;;;;;;;6.50;99.90;;;;;;5069714;28;19916;-71
2022/05/04 05:48:42;;;;;;;;;;;6.60;99.90;;;;;;5073175;28;20417;-71
2022/05/04 05:51:07;;;;;;;;;;;6.80;99.90;;;;;;5036681;28;20662;-71
2022/05/04 05:53:33;;;;;;;;;;;6.80;99.90;;;;;;5073664;28;19943;-71
2022/05/04 05:55:58;;;;;;;;;;;6.90;99.90;;;;;;5073258;28;19969;-72
2022/05/04 05:58:24;;;;;;;;;;;7.00;99.90;;;;;;5074071;28;19931;-71
2022/05/04 06:00:50;;;;;;;;;;;7.10;99.90;;;;;;5073890;28;19912;-71
2022/05/04 06:03:17;;;;;;;;;;;7.20;99.90;;;;;;5074959;28;20249;-71
2022/05/04 06:05:42;;;;;;;;;;;7.20;99.90;;;;;;5073813;28;19916;-71
2022/05/04 06:08:09;;;;;;;;;;;7.30;99.90;;;;;;5071646;28;20055;-71
2022/05/04 06:10:35;;;;;;;;;;;7.40;99.90;;;;;;5073808;28;19920;-71
2022/05/04 06:13:01;;;;;;;;;;;7.50;99.90;;;;;;5074124;28;19928;-72
2022/05/04 06:15:26;;;;;;;;;;;7.60;99.90;;;;;;5072246;28;19965;-71
2022/05/04 06:17:52;;;;;;;;;;;7.70;99.90;;;;;;5072465;28;19966;-71
2022/05/04 06:20:18;;;;;;;;;;;7.80;99.90;;;;;;5073001;28;20288;-71
2022/05/04 06:22:43;;;;;;;;;;;7.90;99.90;;;;;;5072753;28;20172;-71
2022/05/04 06:25:09;;;;;;;;;;;7.90;99.90;;;;;;5072177;28;20007;-71
2022/05/04 06:27:35;;;;;;;;;;;8.00;99.90;;;;;;5073696;28;19921;-71
2022/05/04 06:35:30;;;;;;;;;;;8.40;99.90;;;;;;5071570;28;19938;-70
2022/05/04 06:37:56;;;;;;;;;;;8.50;99.90;;;;;;5073881;28;19913;-70
2022/05/04 06:40:21;;;;;;;;;;;8.50;99.90;;;;;;5071835;28;19912;-71
2022/05/04 06:42:47;;;;;;;;;;;8.60;99.90;;;;;;5071242;28;19912;-71
2022/05/04 06:45:13;;;;;;;;;;;8.60;99.90;;;;;;5073151;28;19916;-71
2022/05/04 06:47:39;;;;;;;;;;;8.60;99.90;;;;;;5073789;28;19916;-71
2022/05/04 06:50:04;;;;;;;;;;;8.80;99.90;;;;;;5072208;28;19949;-71
2022/05/04 06:52:31;;;;;;;;;;;8.80;99.90;;;;;;5060975;28;19920;-71
2022/05/04 06:54:57;;;;;;;;;;;8.90;99.90;;;;;;5068789;28;20007;-71
2022/05/04 06:57:22;;;;;;;;;;;9.00;99.90;;;;;;5062374;28;19924;-71
2022/05/04 06:59:48;;;;;;;;;;;9.10;99.90;;;;;;5073169;28;19963;-71
2022/05/04 07:02:14;;;;;;;;;;;9.20;99.90;;;;;;5071610;28;19913;-71
2022/05/04 07:04:40;;;;;;;;;;;9.30;99.90;;;;;;5073409;28;19916;-71
2022/05/04 07:07:06;;;;;;;;;;;9.40;99.90;;;;;;5072053;28;19955;-71
2022/05/04 07:09:33;;;;;;;;;;;9.60;99.90;;;;;;5070450;28;19956;-72
2022/05/04 07:11:59;;;;;;;;;;;9.60;99.90;;;;;;5065521;28;19947;-70
2022/05/04 07:14:24;;;;;;;;;;;9.90;99.90;;;;;;5071362;28;20809;-71
2022/05/04 07:16:50;;;;;;;;;;;10.00;99.90;;;;;;5071157;28;19912;-71
2022/05/04 07:19:16;;;;;;;;;;;10.30;99.90;;;;;;5073278;28;19913;-71
2022/05/04 07:21:42;;;;;;;;;;;10.30;99.90;;;;;;5070430;28;19917;-71
2022/05/04 07:24:07;;;;;;;;;;;10.60;99.90;;;;;;5058253;28;19909;-70
2022/05/04 07:26:33;;;;;;;;;;;10.70;99.90;;;;;;5072214;28;20192;-71
2022/05/04 07:28:59;;;;;;;;;;;10.70;99.90;;;;;;5074101;28;19920;-71
2022/05/04 07:31:25;;;;;;;;;;;11.20;99.90;;;;;;5074291;28;19951;-71
2022/05/04 07:33:50;;;;;;;;;;;11.80;99.90;;;;;;5065297;28;19913;-71
2022/05/04 07:36:16;;;;;;;;;;;12.30;99.90;;;;;;5070132;28;19912;-71
2022/05/04 07:38:41;;;;;;;;;;;13.00;99.90;;;;;;5063869;28;19917;-71
2022/05/04 07:43:52;;;;;;;;;;;13.40;99.90;;;;;;5075433;28;20338;-71
2022/05/04 07:46:17;;;;;;;;;;;13.90;99.90;;;;;;5075260;28;19919;-70
2022/05/04 07:48:43;;;;;;;;;;;13.60;99.90;;;;;;5077668;28;19924;-71
2022/05/04 07:51:09;;;;;;;;;;;13.70;99.90;;;;;;5076162;28;20303;-71
2022/05/04 07:53:35;;;;;;;;;;;14.20;99.90;;;;;;5078795;28;19951;-72
2022/05/04 07:56:00;;;;;;;;;;;14.60;99.90;;;;;;5075246;28;19916;-72
2022/05/04 07:58:26;;;;;;;;;;;15.10;99.90;;;;;;5074017;28;19970;-71
2022/05/04 08:06:20;;;;;;;;;;;15.80;99.90;;;;;;5074885;28;20326;-72
2022/05/04 08:08:45;;;;;;;;;;;15.70;99.70;;;;;;5076036;28;19916;-72
2022/05/04 08:11:11;;;;;;;;;;;15.50;99.90;;;;;;5075808;28;19938;-72
2022/05/04 08:13:36;;;;;;;;;;;15.60;99.20;;;;;;5075440;28;19921;-71
2022/05/04 08:16:02;;;;;;;;;;;15.40;98.50;;;;;;5072600;28;19913;-71
2022/05/04 08:18:28;;;;;;;;;;;15.80;98.80;;;;;;5076433;28;19924;-71
2022/05/04 08:20:53;;;;;;;;;;;15.60;97.30;;;;;;5076809;28;20295;-71
2022/05/04 08:23:21;;;;;;;;;;;15.30;98.80;;;;;;5074753;28;21503;-71
2022/05/04 08:25:49;;;;;;;;;;;15.10;99.10;;;;;;5076421;28;19920;-71
2022/05/04 08:28:15;;;;;;;;;;;14.90;98.20;;;;;;5075415;28;19924;-70
2022/05/04 08:30:40;;;;;;;;;;;14.30;98.90;;;;;;5075346;28;20203;-70
2022/05/04 08:33:06;;;;;;;;;;;14.00;99.20;;;;;;5075538;28;20197;-70
2022/05/04 08:35:32;;;;;;;;;;;13.50;99.90;;;;;;5075608;28;19916;-70
2022/05/04 08:37:59;;;;;;;;;;;13.40;99.90;;;;;;5075001;28;20263;-71
2022/05/04 08:40:24;;;;;;;;;;;13.40;99.90;;;;;;5074246;28;20000;-71
2022/05/04 08:42:51;;;;;;;;;;;13.30;99.90;;;;;;5076173;28;20016;-71
2022/05/04 08:45:16;;;;;;;;;;;13.40;99.90;;;;;;5075725;28;20337;-71
2022/05/04 08:47:44;;;;;;;;;;;13.10;99.90;;;;;;5075262;28;20007;-70
2022/05/04 08:50:17;;;;;;;;;;;13.00;99.90;;;;;;5074754;28;19913;-71
2022/05/04 08:52:51;;;;;;;;;;;12.70;99.90;;;;;;5073972;28;19913;-71
2022/05/04 08:55:17;;;;;;;;;;;12.90;99.90;;;;;;5074108;28;19920;-71
2022/05/04 08:57:43;;;;;;;;;;;13.00;99.90;;;;;;5075157;28;19967;-71
2022/05/04 09:00:10;;;;;;;;;;;13.60;99.90;;;;;;5071840;28;19999;-71
2022/05/04 09:02:36;;;;;;;;;;;13.50;99.90;;;;;;5062984;28;20269;-70
2022/05/04 09:05:16;;;;;;;;;;;13.40;99.90;;;;;;5075778;28;19962;-71
2022/05/04 09:07:41;;;;;;;;;;;13.10;99.90;;;;;;5075080;28;19916;-71
2022/05/04 09:10:14;;;;;;;;;;;13.10;99.90;;;;;;5072439;28;19916;-71
2022/05/04 09:12:41;;;;;;;;;;;13.10;99.90;;;;;;5070748;28;19921;-71
2022/05/04 09:15:25;;;;;;;;;;;13.20;99.90;;;;;;5071935;28;19927;-71
2022/05/04 09:18:02;;;;;;;;;;;13.10;99.90;;;;;;5068760;28;19916;-71
2022/05/04 09:21:16;;;;;;;;;;;13.50;99.90;;;;;;5074223;28;20330;-70
2022/05/04 09:23:19;;;;;;;;;;;13.40;99.90;;;;;;5060421;28;20377;-71
2022/05/04 09:25:47;;;;;;;;;;;13.20;99.90;;;;;;5076598;28;19946;-71
2022/05/04 09:28:14;;;;;;;;;;;13.00;99.90;;;;;;5072604;28;19935;-71
2022/05/04 09:30:46;;;;;;;;;;;13.00;99.90;;;;;;5073135;28;19919;-71
2022/05/04 09:33:15;;;;;;;;;;;13.20;99.90;;;;;;5070962;28;19913;-71
2022/05/04 09:35:41;;;;;;;;;;;13.10;99.90;;;;;;5074731;28;19920;-71
2022/05/04 09:46:37;;;;;;;;;;;15.20;98.50;;;;;;5071653;28;19916;-71
2022/05/04 09:49:06;;;;;;;;;;;15.60;98.90;;;;;;5072962;28;19931;-71
2022/05/04 09:51:32;;;;;;;;;;;16.00;99.80;;;;;;5074353;28;19913;-72
2022/05/04 09:54:11;;;;;;;;;;;16.00;97.90;;;;;;5071208;28;19994;-71
2022/05/04 09:56:37;;;;;;;;;;;15.10;98.70;;;;;;5070905;28;19920;-71
2022/05/04 09:59:03;;;;;;;;;;;15.20;99.90;;;;;;5068040;28;19916;-72
2022/05/04 10:01:29;;;;;;;;;;;15.00;99.90;;;;;;5069581;28;19952;-72
2022/05/04 10:04:00;;;;;;;;;;;14.90;99.50;;;;;;5069628;28;19970;-71
2022/05/04 10:06:26;;;;;;;;;;;14.80;98.80;;;;;;5072264;28;20319;-72
2022/05/04 10:08:52;;;;;;;;;;;14.60;99.50;;;;;;5073689;28;20007;-71
2022/05/04 10:11:18;;;;;;;;;;;15.00;99.90;;;;;;5072793;28;20031;-71
2022/05/04 10:13:44;;;;;;;;;;;15.20;99.20;;;;;;5073808;28;20003;-72
2022/05/04 10:16:11;;;;;;;;;;;15.10;99.70;;;;;;5071773;28;19921;-71
2022/05/04 10:18:38;;;;;;;;;;;15.10;99.00;;;;;;5066749;28;19919;-71
2022/05/04 10:21:07;;;;;;;;;;;14.90;98.90;;;;;;5073928;28;20003;-72
2022/05/04 10:23:35;;;;;;;;;;;14.90;99.60;;;;;;5071536;28;19919;-71
2022/05/04 10:26:03;;;;;;;;;;;14.70;99.60;;;;;;5073072;28;19916;-71
2022/05/04 10:28:35;;;;;;;;;;;14.50;99.10;;;;;;5073565;28;19927;-71
2022/05/04 10:31:00;;;;;;;;;;;14.80;99.80;;;;;;5070826;28;19912;-71
2022/05/04 10:33:33;;;;;;;;;;;15.00;99.90;;;;;;5072845;28;20003;-71
2022/05/04 10:36:16;;;;;;;;;;;14.60;98.90;;;;;;5071293;28;19917;-71
2022/05/04 10:38:42;;;;;;;;;;;15.00;99.90;;;;;;5072430;28;19913;-70
2022/05/04 10:41:09;;;;;;;;;;;15.10;99.90;;;;;;5073322;28;19944;-70
2022/05/04 10:43:42;;;;;;;;;;;14.90;99.50;;;;;;5073321;28;19920;-71
2022/05/04 10:46:09;;;;;;;;;;;14.60;99.90;;;;;;5070558;28;19921;-70
2022/05/04 10:48:35;;;;;;;;;;;14.20;99.20;;;;;;5060547;28;19973;-70
2022/05/04 10:51:03;;;;;;;;;;;14.30;99.90;;;;;;5068559;28;19912;-70
2022/05/04 10:53:29;;;;;;;;;;;14.20;99.90;;;;;;5071837;28;19986;-71
2022/05/04 10:55:55;;;;;;;;;;;14.20;99.90;;;;;;5071416;28;20299;-70
2022/05/04 10:58:42;;;;;;;;;;;14.00;99.90;;;;;;5072053;28;19935;-70
2022/05/04 11:01:23;;;;;;;;;;;13.90;99.90;;;;;;5071835;28;19912;-71
2022/05/04 11:03:58;;;;;;;;;;;13.60;99.90;;;;;;5073147;28;19916;-71
2022/05/04 11:06:25;;;;;;;;;;;13.50;99.90;;;;;;5072018;28;19946;-70
2022/05/04 11:08:52;;;;;;;;;;;13.60;99.90;;;;;;5070886;28;19921;-71
2022/05/04 11:11:21;;;;;;;;;;;13.80;99.90;;;;;;5070158;28;19920;-69
2022/05/04 11:13:47;;;;;;;;;;;13.70;99.90;;;;;;5070006;28;19930;-71
2022/05/04 11:16:12;;;;;;;;;;;13.90;99.90;;;;;;5070558;28;19920;-71
2022/05/04 11:18:38;;;;;;;;;;;14.00;99.90;;;;;;5065527;28;19921;-70
2022/05/04 11:21:06;;;;;;;;;;;14.30;99.90;;;;;;5056910;28;19916;-69
2022/05/04 11:23:32;;;;;;;;;;;14.60;99.90;;;;;;5071370;28;19913;-70
2022/05/04 11:25:58;;;;;;;;;;;14.70;99.90;;;;;;5062799;28;19952;-70
2022/05/04 11:28:24;;;;;;;;;;;14.50;99.90;;;;;;5069190;28;20298;-70
2022/05/04 11:30:51;;;;;;;;;;;14.60;99.90;;;;;;5073725;28;19915;-70
2022/05/04 11:33:17;;;;;;;;;;;14.40;99.50;;;;;;5072560;28;19916;-70
2022/05/04 11:35:43;;;;;;;;;;;14.80;99.80;;;;;;5073349;28;19917;-70
2022/05/04 11:38:21;;;;;;;;;;;14.80;99.40;;;;;;5074768;28;19934;-70
2022/05/04 11:40:47;;;;;;;;;;;14.60;99.90;;;;;;5072986;28;19913;-70
2022/05/04 11:43:33;;;;;;;;;;;14.60;99.90;;;;;;5072179;28;20315;-71
2022/05/04 11:46:03;;;;;;;;;;;14.80;99.90;;;;;;5073804;28;19924;-70
2022/05/04 11:48:30;;;;;;;;;;;15.30;99.80;;;;;;5074948;28;20007;-70
2022/05/04 11:50:55;;;;;;;;;;;15.40;99.50;;;;;;5074344;28;19920;-70
2022/05/04 11:53:21;;;;;;;;;;;15.40;99.90;;;;;;5074060;28;19912;-70
2022/05/04 11:55:47;;;;;;;;;;;15.30;99.50;;;;;;5075025;28;19927;-70
2022/05/04 11:58:14;;;;;;;;;;;15.50;99.90;;;;;;5073144;28;19916;-70
2022/05/04 12:00:40;;;;;;;;;;;15.60;99.50;;;;;;5055665;28;19935;-70
2022/05/04 12:05:51;;;;;;;;;;;16.00;99.90;;;;;;5074580;28;19920;-70
2022/05/04 12:08:19;;;;;;;;;;;16.20;99.40;;;;;;5072404;28;19970;-70
2022/05/04 12:10:45;;;;;;;;;;;16.10;99.70;;;;;;5063625;28;19931;-70
2022/05/04 12:13:13;;;;;;;;;;;16.80;99.30;;;;;;5054790;28;19970;-70
2022/05/04 12:15:39;;;;;;;;;;;17.60;98.20;;;;;;5054776;28;20003;-70
2022/05/04 12:18:08;;;;;;;;;;;17.80;98.40;;;;;;5072273;28;20477;-70
2022/05/04 12:20:34;;;;;;;;;;;18.20;97.30;;;;;;5073236;28;19917;-70
2022/05/04 12:23:00;;;;;;;;;;;18.10;95.50;;;;;;5071663;28;19962;-71
2022/05/04 12:25:26;;;;;;;;;;;18.60;96.60;;;;;;5069943;28;19919;-70
2022/05/04 12:27:54;;;;;;;;;;;18.40;96.40;;;;;;5072595;28;19916;-70
2022/05/04 12:33:08;;;;;;;;;;;17.50;96.70;;;;;;5077190;28;19935;-71
2022/05/04 12:35:46;;;;;;;;;;;17.00;97.40;;;;;;5077516;28;19909;-71
2022/05/04 12:38:16;;;;;;;;;;;17.20;98.80;;;;;;5060098;28;19913;-70
2022/05/04 12:40:42;;;;;;;;;;;17.70;96.90;;;;;;5075783;28;19917;-70
2022/05/04 12:43:09;;;;;;;;;;;18.00;96.20;;;;;;5075274;28;20265;-70
2022/05/04 12:45:35;;;;;;;;;;;18.00;98.10;;;;;;5073547;28;20311;-71
2022/05/04 12:48:04;;;;;;;;;;;17.30;96.30;;;;;;5073149;28;20007;-70
2022/05/04 12:50:29;;;;;;;;;;;17.10;98.20;;;;;;5069804;28;19924;-70
2022/05/04 12:52:56;;;;;;;;;;;16.80;98.40;;;;;;5072415;28;19916;-70
2022/05/04 12:56:45;;;;;;;;;;;16.50;97.20;;;;;;5074014;28;19978;-72
2022/05/04 12:58:10;;;;;;;;;;;16.50;98.20;;;;;;5073369;28;20227;-70
2022/05/04 13:00:36;;;;;;;;;;;16.80;99.10;;;;;;5068824;28;19912;-69
2022/05/04 13:03:02;;;;;;;;;;;16.70;96.90;;;;;;5075415;28;19935;-71
2022/05/04 13:05:28;;;;;;;;;;;16.80;99.10;;;;;;5064517;28;19928;-71
2022/05/04 13:07:53;;;;;;;;;;;17.10;98.30;;;;;;5074217;28;19912;-70
2022/05/04 13:10:19;;;;;;;;;;;16.90;96.80;;;;;;5073540;28;19912;-71
2022/05/04 13:12:45;;;;;;;;;;;16.90;97.30;;;;;;5072150;28;19935;-71
2022/05/04 13:15:10;;;;;;;;;;;16.80;98.00;;;;;;5074204;28;20222;-71
2022/05/04 13:17:36;;;;;;;;;;;17.00;98.90;;;;;;5073391;28;20208;-70
2022/05/04 13:20:03;;;;;;;;;;;17.00;99.90;;;;;;5076790;28;20021;-70
2022/05/04 13:22:28;;;;;;;;;;;16.60;99.10;;;;;;5073796;28;19921;-70
2022/05/04 13:24:55;;;;;;;;;;;16.20;98.90;;;;;;5074580;28;19919;-69
2022/05/04 13:27:21;;;;;;;;;;;15.70;99.50;;;;;;5074942;28;19912;-69
2022/05/04 13:29:47;;;;;;;;;;;16.00;99.90;;;;;;5072171;28;19919;-70
2022/05/04 13:32:12;;;;;;;;;;;15.80;99.60;;;;;;5065276;28;20365;-70
2022/05/04 13:34:39;;;;;;;;;;;15.90;99.90;;;;;;5075648;28;19916;-70
2022/05/04 13:37:04;;;;;;;;;;;15.80;99.90;;;;;;5074156;28;20031;-70
2022/05/04 13:39:30;;;;;;;;;;;15.50;99.60;;;;;;5071730;28;20358;-71
2022/05/04 13:41:56;;;;;;;;;;;15.50;99.90;;;;;;5071327;28;19927;-71
2022/05/04 13:44:22;;;;;;;;;;;15.80;99.90;;;;;;5072948;28;19920;-71
2022/05/04 13:46:47;;;;;;;;;;;15.80;99.80;;;;;;5075091;28;19912;-71
2022/05/04 13:49:13;;;;;;;;;;;15.80;99.80;;;;;;5075126;28;20319;-71
2022/05/04 13:54:23;;;;;;;;;;;15.90;99.20;;;;;;5072442;28;19946;-71
2022/05/04 13:56:48;;;;;;;;;;;15.80;99.70;;;;;;5075082;28;20269;-71
2022/05/04 13:59:14;;;;;;;;;;;15.80;99.90;;;;;;5074369;28;19920;-70
2022/05/04 14:01:40;;;;;;;;;;;15.90;99.80;;;;;;5074765;28;19973;-71
2022/05/04 14:04:06;;;;;;;;;;;15.70;98.80;;;;;;5071713;28;19920;-71
2022/05/04 14:06:31;;;;;;;;;;;15.70;99.90;;;;;;5073295;28;19916;-70
2022/05/04 14:08:57;;;;;;;;;;;15.60;99.00;;;;;;5073402;28;20650;-71
2022/05/04 14:11:22;;;;;;;;;;;15.70;99.90;;;;;;5073939;28;20007;-70
2022/05/04 14:13:49;;;;;;;;;;;15.60;99.50;;;;;;5069730;28;19920;-71
2022/05/04 14:16:15;;;;;;;;;;;15.40;99.90;;;;;;5074083;28;19920;-70
2022/05/04 14:18:42;;;;;;;;;;;15.40;99.80;;;;;;5073006;28;19916;-71
2022/05/04 14:21:08;;;;;;;;;;;15.50;99.90;;;;;;5073507;28;19921;-72
2022/05/04 14:23:34;;;;;;;;;;;15.60;99.90;;;;;;5071832;28;19920;-71
2022/05/04 14:26:00;;;;;;;;;;;15.70;99.90;;;;;;5072556;28;20223;-72
2022/05/04 14:28:28;;;;;;;;;;;15.60;99.90;;;;;;5074894;28;19924;-72
2022/05/04 14:30:57;;;;;;;;;;;15.60;99.90;;;;;;5063604;28;19948;-71
2022/05/04 14:33:23;;;;;;;;;;;15.30;99.90;;;;;;5066601;28;19920;-71
2022/05/04 14:35:48;;;;;;;;;;;15.40;99.90;;;;;;5072275;28;20227;-71
2022/05/04 14:38:14;;;;;;;;;;;15.40;99.90;;;;;;5073923;28;19912;-71
2022/05/04 14:40:40;;;;;;;;;;;15.30;99.90;;;;;;5072086;28;19913;-70
2022/05/04 14:43:05;;;;;;;;;;;15.20;99.90;;;;;;5072878;28;19913;-71
2022/05/04 14:45:31;;;;;;;;;;;15.10;99.90;;;;;;5071911;28;19947;-70
2022/05/04 14:47:57;;;;;;;;;;;15.30;99.90;;;;;;5072149;28;19917;-71
2022/05/04 14:50:23;;;;;;;;;;;15.40;99.90;;;;;;5074350;28;19989;-71
2022/05/04 14:52:49;;;;;;;;;;;15.30;99.90;;;;;;5073178;28;19920;-71
2022/05/04 14:55:15;;;;;;;;;;;15.40;99.90;;;;;;5072296;28;20259;-71
2022/05/04 14:57:40;;;;;;;;;;;15.50;99.90;;;;;;5073801;28;19966;-70
2022/05/04 15:00:06;;;;;;;;;;;15.50;99.90;;;;;;5074024;28;19947;-70
2022/05/04 15:02:31;;;;;;;;;;;15.40;99.90;;;;;;5073804;28;19923;-71